sensor_id;sensor_type;location;lat;lon;timestamp;pressure;altitude;pressure_sealevel;temperature
28803;BMP280;15949;55.656;37.422;2023-06-26T00:03:17;99384.53;;;13.04
28803;BMP280;15949;55.656;37.422;2023-06-26T00:08:23;99378.84;;;12.99
28803;BMP280;15949;55.656;37.422;2023-06-26T00:13:29;99379.19;;;12.97
28803;BMP280;15949;55.656;37.422;2023-06-26T00:18:35;99370.59;;;12.97
28803;BMP280;15949;55.656;37.422;2023-06-26T00:23:40;99370.25;;;12.98
28803;BMP280;15949;55.656;37.422;2023-06-26T00:28:46;99367.63;;;12.98
28803;BMP280;15949;55.656;37.422;2023-06-26T00:33:52;99353.78;;;12.98
28803;BMP280;15949;55.656;37.422;2023-06-26T00:38:57;99360.06;;;12.93
28803;BMP280;15949;55.656;37.422;2023-06-26T00:44:06;99345.31;;;12.85
28803;BMP280;15949;55.656;37.422;2023-06-26T00:49:12;99344.88;;;12.79
28803;BMP280;15949;55.656;37.422;2023-06-26T00:54:18;99355.63;;;12.74
28803;BMP280;15949;55.656;37.422;2023-06-26T00:59:25;99353.28;;;12.69
28803;BMP280;15949;55.656;37.422;2023-06-26T01:04:31;99355.56;;;12.71
28803;BMP280;15949;55.656;37.422;2023-06-26T01:09:37;99357.44;;;12.70
28803;BMP280;15949;55.656;37.422;2023-06-26T01:14:43;99360.81;;;12.71
28803;BMP280;15949;55.656;37.422;2023-06-26T01:19:49;99365.66;;;12.72
28803;BMP280;15949;55.656;37.422;2023-06-26T01:30:13;99359.28;;;12.70
28803;BMP280;15949;55.656;37.422;2023-06-26T01:35:19;99353.97;;;12.66
28803;BMP280;15949;55.656;37.422;2023-06-26T01:40:25;99358.47;;;12.66
28803;BMP280;15949;55.656;37.422;2023-06-26T01:45:32;99354.81;;;12.70
28803;BMP280;15949;55.656;37.422;2023-06-26T01:50:39;99353.34;;;12.73
28803;BMP280;15949;55.656;37.422;2023-06-26T01:56:00;99352.78;;;12.83
28803;BMP280;15949;55.656;37.422;2023-06-26T02:01:09;99351.38;;;12.89
28803;BMP280;15949;55.656;37.422;2023-06-26T02:06:14;99356.75;;;12.96
28803;BMP280;15949;55.656;37.422;2023-06-26T02:11:20;99356.94;;;13.07
28803;BMP280;15949;55.656;37.422;2023-06-26T02:16:26;99362.44;;;13.24
28803;BMP280;15949;55.656;37.422;2023-06-26T02:21:31;99359.22;;;13.34
28803;BMP280;15949;55.656;37.422;2023-06-26T02:26:37;99366.19;;;13.50
28803;BMP280;15949;55.656;37.422;2023-06-26T02:31:42;99360.34;;;13.60
28803;BMP280;15949;55.656;37.422;2023-06-26T02:36:48;99358.97;;;13.69
28803;BMP280;15949;55.656;37.422;2023-06-26T02:41:54;99361.06;;;13.83
28803;BMP280;15949;55.656;37.422;2023-06-26T02:46:59;99360.41;;;13.93
28803;BMP280;15949;55.656;37.422;2023-06-26T02:52:05;99359.50;;;14.11
28803;BMP280;15949;55.656;37.422;2023-06-26T02:57:11;99365.38;;;14.31
28803;BMP280;15949;55.656;37.422;2023-06-26T03:02:18;99367.13;;;14.53
28803;BMP280;15949;55.656;37.422;2023-06-26T03:07:24;99362.47;;;14.76
28803;BMP280;15949;55.656;37.422;2023-06-26T03:12:29;99358.50;;;14.97
28803;BMP280;15949;55.656;37.422;2023-06-26T03:17:35;99359.41;;;15.18
28803;BMP280;15949;55.656;37.422;2023-06-26T03:22:40;99355.09;;;15.47
28803;BMP280;15949;55.656;37.422;2023-06-26T03:27:46;99348.13;;;15.79
28803;BMP280;15949;55.656;37.422;2023-06-26T03:32:51;99350.16;;;16.14
28803;BMP280;15949;55.656;37.422;2023-06-26T03:37:58;99342.69;;;16.34
28803;BMP280;15949;55.656;37.422;2023-06-26T03:43:03;99338.19;;;16.52
28803;BMP280;15949;55.656;37.422;2023-06-26T03:48:09;99344.22;;;16.73
28803;BMP280;15949;55.656;37.422;2023-06-26T03:53:14;99337.84;;;16.88
28803;BMP280;15949;55.656;37.422;2023-06-26T03:58:20;99335.19;;;17.06
28803;BMP280;15949;55.656;37.422;2023-06-26T04:03:26;99333.66;;;17.19
28803;BMP280;15949;55.656;37.422;2023-06-26T04:08:31;99328.75;;;17.28
28803;BMP280;15949;55.656;37.422;2023-06-26T04:13:37;99331.34;;;17.42
28803;BMP280;15949;55.656;37.422;2023-06-26T04:18:42;99338.78;;;17.61
28803;BMP280;15949;55.656;37.422;2023-06-26T04:23:48;99334.94;;;17.80
28803;BMP280;15949;55.656;37.422;2023-06-26T04:28:54;99333.66;;;18.09
28803;BMP280;15949;55.656;37.422;2023-06-26T04:33:59;99337.56;;;18.42
28803;BMP280;15949;55.656;37.422;2023-06-26T04:39:05;99338.13;;;18.71
28803;BMP280;15949;55.656;37.422;2023-06-26T04:44:11;99331.78;;;19.02
28803;BMP280;15949;55.656;37.422;2023-06-26T04:49:17;99340.59;;;19.25
28803;BMP280;15949;55.656;37.422;2023-06-26T04:54:23;99332.97;;;19.31
28803;BMP280;15949;55.656;37.422;2023-06-26T04:59:29;99333.31;;;19.33
28803;BMP280;15949;55.656;37.422;2023-06-26T05:04:35;99332.75;;;19.49
28803;BMP280;15949;55.656;37.422;2023-06-26T05:09:40;99324.91;;;19.72
28803;BMP280;15949;55.656;37.422;2023-06-26T05:14:46;99329.28;;;19.82
28803;BMP280;15949;55.656;37.422;2023-06-26T05:19:51;99331.31;;;20.01
28803;BMP280;15949;55.656;37.422;2023-06-26T05:24:58;99319.84;;;20.11
28803;BMP280;15949;55.656;37.422;2023-06-26T05:30:06;99325.56;;;20.06
28803;BMP280;15949;55.656;37.422;2023-06-26T05:35:12;99329.50;;;19.94
28803;BMP280;15949;55.656;37.422;2023-06-26T05:40:19;99319.88;;;20.07
28803;BMP280;15949;55.656;37.422;2023-06-26T05:45:24;99319.03;;;20.14
28803;BMP280;15949;55.656;37.422;2023-06-26T05:50:30;99315.88;;;20.23
28803;BMP280;15949;55.656;37.422;2023-06-26T05:55:36;99313.00;;;20.56
28803;BMP280;15949;55.656;37.422;2023-06-26T06:00:42;99314.13;;;20.78
28803;BMP280;15949;55.656;37.422;2023-06-26T06:05:47;99315.25;;;21.00
28803;BMP280;15949;55.656;37.422;2023-06-26T06:10:53;99312.50;;;21.24
28803;BMP280;15949;55.656;37.422;2023-06-26T06:15:58;99306.91;;;21.38
28803;BMP280;15949;55.656;37.422;2023-06-26T06:21:04;99310.56;;;21.44
28803;BMP280;15949;55.656;37.422;2023-06-26T06:26:10;99317.31;;;21.48
28803;BMP280;15949;55.656;37.422;2023-06-26T06:31:15;99299.97;;;21.60
28803;BMP280;15949;55.656;37.422;2023-06-26T06:36:21;99306.47;;;21.59
28803;BMP280;15949;55.656;37.422;2023-06-26T06:41:26;99307.59;;;21.74
28803;BMP280;15949;55.656;37.422;2023-06-26T06:46:32;99300.78;;;21.76
28803;BMP280;15949;55.656;37.422;2023-06-26T06:51:37;99306.63;;;22.16
28803;BMP280;15949;55.656;37.422;2023-06-26T06:56:43;99299.88;;;22.28
28803;BMP280;15949;55.656;37.422;2023-06-26T07:01:49;99304.22;;;22.22
28803;BMP280;15949;55.656;37.422;2023-06-26T07:06:55;99290.78;;;22.57
28803;BMP280;15949;55.656;37.422;2023-06-26T07:12:00;99294.78;;;22.91
28803;BMP280;15949;55.656;37.422;2023-06-26T07:17:06;99285.25;;;23.06
28803;BMP280;15949;55.656;37.422;2023-06-26T07:22:11;99288.22;;;23.20
28803;BMP280;15949;55.656;37.422;2023-06-26T07:27:17;99288.97;;;23.33
28803;BMP280;15949;55.656;37.422;2023-06-26T07:32:24;99282.47;;;23.34
28803;BMP280;15949;55.656;37.422;2023-06-26T07:37:29;99287.63;;;23.29
28803;BMP280;15949;55.656;37.422;2023-06-26T07:42:36;99289.09;;;23.55
28803;BMP280;15949;55.656;37.422;2023-06-26T07:47:42;99282.28;;;23.54
28803;BMP280;15949;55.656;37.422;2023-06-26T07:52:48;99270.47;;;23.89
28803;BMP280;15949;55.656;37.422;2023-06-26T07:57:54;99274.22;;;24.13
28803;BMP280;15949;55.656;37.422;2023-06-26T08:03:00;99279.59;;;24.56
28803;BMP280;15949;55.656;37.422;2023-06-26T08:08:06;99266.69;;;24.86
28803;BMP280;15949;55.656;37.422;2023-06-26T08:13:12;99263.75;;;24.93
28803;BMP280;15949;55.656;37.422;2023-06-26T08:18:18;99265.59;;;25.05
28803;BMP280;15949;55.656;37.422;2023-06-26T08:23:23;99272.34;;;25.27
28803;BMP280;15949;55.656;37.422;2023-06-26T08:28:29;99272.97;;;25.49
28803;BMP280;15949;55.656;37.422;2023-06-26T08:33:35;99273.72;;;25.50
28803;BMP280;15949;55.656;37.422;2023-06-26T08:38:41;99267.06;;;26.00
28803;BMP280;15949;55.656;37.422;2023-06-26T08:43:47;99261.88;;;25.51
28803;BMP280;15949;55.656;37.422;2023-06-26T08:49:01;99262.69;;;24.81
28803;BMP280;15949;55.656;37.422;2023-06-26T08:54:09;99269.16;;;24.06
28803;BMP280;15949;55.656;37.422;2023-06-26T08:59:17;99269.59;;;23.20
28803;BMP280;15949;55.656;37.422;2023-06-26T09:04:22;99266.56;;;22.68
28803;BMP280;15949;55.656;37.422;2023-06-26T09:09:28;99266.13;;;22.28
28803;BMP280;15949;55.656;37.422;2023-06-26T09:14:33;99268.84;;;22.09
28803;BMP280;15949;55.656;37.422;2023-06-26T09:19:39;99258.22;;;21.80
28803;BMP280;15949;55.656;37.422;2023-06-26T09:24:45;99268.03;;;21.47
28803;BMP280;15949;55.656;37.422;2023-06-26T09:29:51;99275.03;;;21.22
28803;BMP280;15949;55.656;37.422;2023-06-26T09:34:56;99273.78;;;21.10
28803;BMP280;15949;55.656;37.422;2023-06-26T09:40:03;99271.66;;;21.01
28803;BMP280;15949;55.656;37.422;2023-06-26T09:45:17;99269.19;;;21.11
28803;BMP280;15949;55.656;37.422;2023-06-26T09:50:23;99270.41;;;21.26
28803;BMP280;15949;55.656;37.422;2023-06-26T09:55:34;99273.44;;;21.08
28803;BMP280;15949;55.656;37.422;2023-06-26T10:00:41;99283.75;;;20.83
28803;BMP280;15949;55.656;37.422;2023-06-26T10:05:47;99281.13;;;20.63
28803;BMP280;15949;55.656;37.422;2023-06-26T10:10:54;99284.56;;;20.60
28803;BMP280;15949;55.656;37.422;2023-06-26T10:16:00;99283.63;;;20.70
28803;BMP280;15949;55.656;37.422;2023-06-26T10:21:06;99269.72;;;20.43
28803;BMP280;15949;55.656;37.422;2023-06-26T10:26:14;99265.03;;;20.31
28803;BMP280;15949;55.656;37.422;2023-06-26T10:31:22;99250.19;;;20.37
28803;BMP280;15949;55.656;37.422;2023-06-26T10:36:30;99245.72;;;20.54
28803;BMP280;15949;55.656;37.422;2023-06-26T10:41:37;99236.50;;;20.81
28803;BMP280;15949;55.656;37.422;2023-06-26T10:46:54;99227.91;;;21.13
28803;BMP280;15949;55.656;37.422;2023-06-26T10:52:01;99224.19;;;21.43
28803;BMP280;15949;55.656;37.422;2023-06-26T10:57:07;99226.88;;;21.59
28803;BMP280;15949;55.656;37.422;2023-06-26T11:02:12;99222.22;;;21.79
28803;BMP280;15949;55.656;37.422;2023-06-26T11:07:23;99215.75;;;21.80
28803;BMP280;15949;55.656;37.422;2023-06-26T11:12:41;99212.25;;;21.99
28803;BMP280;15949;55.656;37.422;2023-06-26T11:17:48;99212.75;;;22.23
28803;BMP280;15949;55.656;37.422;2023-06-26T11:22:55;99215.63;;;22.57
28803;BMP280;15949;55.656;37.422;2023-06-26T11:28:05;99220.22;;;22.69
28803;BMP280;15949;55.656;37.422;2023-06-26T11:33:11;99218.00;;;23.30
28803;BMP280;15949;55.656;37.422;2023-06-26T11:38:16;99200.22;;;23.40
28803;BMP280;15949;55.656;37.422;2023-06-26T11:43:22;99197.72;;;23.92
28803;BMP280;15949;55.656;37.422;2023-06-26T11:48:27;99194.31;;;24.65
28803;BMP280;15949;55.656;37.422;2023-06-26T11:53:39;99192.56;;;24.71
28803;BMP280;15949;55.656;37.422;2023-06-26T12:04:08;99168.78;;;25.04
28803;BMP280;15949;55.656;37.422;2023-06-26T12:09:14;99169.00;;;24.70
28803;BMP280;15949;55.656;37.422;2023-06-26T12:14:22;99158.59;;;24.63
28803;BMP280;15949;55.656;37.422;2023-06-26T12:19:28;99157.88;;;25.11
28803;BMP280;15949;55.656;37.422;2023-06-26T12:24:37;99153.41;;;25.80
28803;BMP280;15949;55.656;37.422;2023-06-26T12:29:53;99144.13;;;26.09
28803;BMP280;15949;55.656;37.422;2023-06-26T12:35:00;99130.50;;;26.48
28803;BMP280;15949;55.656;37.422;2023-06-26T12:40:19;99129.66;;;26.89
28803;BMP280;15949;55.656;37.422;2023-06-26T12:45:27;99138.06;;;26.97
28803;BMP280;15949;55.656;37.422;2023-06-26T12:50:37;99122.97;;;27.09
28803;BMP280;15949;55.656;37.422;2023-06-26T12:55:43;99123.72;;;25.78
28803;BMP280;15949;55.656;37.422;2023-06-26T13:00:48;99142.38;;;24.79
28803;BMP280;15949;55.656;37.422;2023-06-26T13:05:54;99139.31;;;23.98
28803;BMP280;15949;55.656;37.422;2023-06-26T13:11:00;99131.09;;;23.49
28803;BMP280;15949;55.656;37.422;2023-06-26T13:16:06;99126.19;;;23.13
28803;BMP280;15949;55.656;37.422;2023-06-26T13:21:11;99123.03;;;22.93
28803;BMP280;15949;55.656;37.422;2023-06-26T13:26:17;99118.69;;;22.86
28803;BMP280;15949;55.656;37.422;2023-06-26T13:31:22;99114.91;;;23.22
28803;BMP280;15949;55.656;37.422;2023-06-26T13:36:28;99099.94;;;24.54
28803;BMP280;15949;55.656;37.422;2023-06-26T13:41:33;99097.81;;;25.43
28803;BMP280;15949;55.656;37.422;2023-06-26T13:46:39;99091.78;;;25.93
28803;BMP280;15949;55.656;37.422;2023-06-26T13:51:44;99094.97;;;25.73
28803;BMP280;15949;55.656;37.422;2023-06-26T13:56:52;99090.28;;;26.10
28803;BMP280;15949;55.656;37.422;2023-06-26T14:02:02;99077.56;;;26.52
28803;BMP280;15949;55.656;37.422;2023-06-26T14:07:09;99068.13;;;26.89
28803;BMP280;15949;55.656;37.422;2023-06-26T14:12:15;99074.53;;;27.50
28803;BMP280;15949;55.656;37.422;2023-06-26T14:17:21;99065.75;;;27.93
28803;BMP280;15949;55.656;37.422;2023-06-26T14:22:29;99063.47;;;27.72
28803;BMP280;15949;55.656;37.422;2023-06-26T14:27:35;99063.06;;;26.44
28803;BMP280;15949;55.656;37.422;2023-06-26T14:32:41;99061.50;;;25.45
28803;BMP280;15949;55.656;37.422;2023-06-26T14:37:48;99077.38;;;24.46
28803;BMP280;15949;55.656;37.422;2023-06-26T14:42:54;99066.28;;;23.77
28803;BMP280;15949;55.656;37.422;2023-06-26T14:48:00;99069.63;;;23.00
28803;BMP280;15949;55.656;37.422;2023-06-26T14:53:05;99056.94;;;22.57
28803;BMP280;15949;55.656;37.422;2023-06-26T14:58:11;99051.03;;;23.34
28803;BMP280;15949;55.656;37.422;2023-06-26T15:03:16;99053.75;;;26.07
28803;BMP280;15949;55.656;37.422;2023-06-26T15:08:22;99055.72;;;27.45
28803;BMP280;15949;55.656;37.422;2023-06-26T15:13:27;99036.91;;;30.41
28803;BMP280;15949;55.656;37.422;2023-06-26T15:18:33;99031.44;;;32.42
28803;BMP280;15949;55.656;37.422;2023-06-26T15:23:39;99021.16;;;31.88
28803;BMP280;15949;55.656;37.422;2023-06-26T15:28:44;99023.88;;;30.17
28803;BMP280;15949;55.656;37.422;2023-06-26T15:33:50;99025.59;;;31.91
28803;BMP280;15949;55.656;37.422;2023-06-26T15:38:55;99017.69;;;33.52
28803;BMP280;15949;55.656;37.422;2023-06-26T15:44:01;99010.19;;;34.20
28803;BMP280;15949;55.656;37.422;2023-06-26T15:49:06;99016.72;;;33.50
28803;BMP280;15949;55.656;37.422;2023-06-26T15:54:12;99012.47;;;32.82
28803;BMP280;15949;55.656;37.422;2023-06-26T15:59:19;99045.06;;;30.74
28803;BMP280;15949;55.656;37.422;2023-06-26T16:04:24;99048.22;;;26.67
28803;BMP280;15949;55.656;37.422;2023-06-26T16:09:30;99062.69;;;24.32
28803;BMP280;15949;55.656;37.422;2023-06-26T16:14:36;99068.78;;;23.03
28803;BMP280;15949;55.656;37.422;2023-06-26T16:19:41;99068.94;;;22.24
28803;BMP280;15949;55.656;37.422;2023-06-26T16:24:47;99086.38;;;21.84
28803;BMP280;15949;55.656;37.422;2023-06-26T16:29:52;99077.34;;;21.53
28803;BMP280;15949;55.656;37.422;2023-06-26T16:34:59;99072.41;;;21.23
28803;BMP280;15949;55.656;37.422;2023-06-26T16:40:05;99064.59;;;21.16
28803;BMP280;15949;55.656;37.422;2023-06-26T16:45:11;99073.72;;;20.98
28803;BMP280;15949;55.656;37.422;2023-06-26T16:50:16;99068.00;;;20.84
28803;BMP280;15949;55.656;37.422;2023-06-26T16:55:22;99067.03;;;20.74
28803;BMP280;15949;55.656;37.422;2023-06-26T17:00:28;99070.81;;;20.77
28803;BMP280;15949;55.656;37.422;2023-06-26T17:05:34;99064.19;;;20.69
28803;BMP280;15949;55.656;37.422;2023-06-26T17:10:40;99059.72;;;20.46
28803;BMP280;15949;55.656;37.422;2023-06-26T17:15:45;99064.78;;;20.21
28803;BMP280;15949;55.656;37.422;2023-06-26T17:20:51;99076.63;;;19.93
28803;BMP280;15949;55.656;37.422;2023-06-26T17:25:57;99078.47;;;19.77
28803;BMP280;15949;55.656;37.422;2023-06-26T17:31:03;99083.66;;;19.61
28803;BMP280;15949;55.656;37.422;2023-06-26T17:36:09;99081.63;;;19.45
28803;BMP280;15949;55.656;37.422;2023-06-26T17:41:17;99072.38;;;19.33
28803;BMP280;15949;55.656;37.422;2023-06-26T17:46:22;99067.69;;;19.21
28803;BMP280;15949;55.656;37.422;2023-06-26T17:51:28;99077.16;;;18.92
28803;BMP280;15949;55.656;37.422;2023-06-26T17:56:34;99073.56;;;18.79
28803;BMP280;15949;55.656;37.422;2023-06-26T18:01:40;99084.88;;;18.80
28803;BMP280;15949;55.656;37.422;2023-06-26T18:06:46;99089.50;;;18.72
28803;BMP280;15949;55.656;37.422;2023-06-26T18:11:52;99087.72;;;18.62
28803;BMP280;15949;55.656;37.422;2023-06-26T18:16:57;99093.78;;;18.63
28803;BMP280;15949;55.656;37.422;2023-06-26T18:22:03;99079.28;;;18.74
28803;BMP280;15949;55.656;37.422;2023-06-26T18:27:09;99092.81;;;18.80
28803;BMP280;15949;55.656;37.422;2023-06-26T18:32:14;99092.50;;;18.44
28803;BMP280;15949;55.656;37.422;2023-06-26T18:37:20;99088.78;;;18.04
28803;BMP280;15949;55.656;37.422;2023-06-26T18:42:25;99096.00;;;17.93
28803;BMP280;15949;55.656;37.422;2023-06-26T18:47:31;99097.41;;;17.64
28803;BMP280;15949;55.656;37.422;2023-06-26T18:52:36;99097.09;;;17.51
28803;BMP280;15949;55.656;37.422;2023-06-26T18:57:42;99091.16;;;17.40
28803;BMP280;15949;55.656;37.422;2023-06-26T19:02:48;99097.22;;;17.37
28803;BMP280;15949;55.656;37.422;2023-06-26T19:07:53;99095.00;;;17.25
28803;BMP280;15949;55.656;37.422;2023-06-26T19:12:59;99084.59;;;17.04
28803;BMP280;15949;55.656;37.422;2023-06-26T19:18:04;99083.16;;;16.96
28803;BMP280;15949;55.656;37.422;2023-06-26T19:23:10;99086.47;;;17.07
28803;BMP280;15949;55.656;37.422;2023-06-26T19:28:16;99091.75;;;17.07
28803;BMP280;15949;55.656;37.422;2023-06-26T19:33:21;99079.00;;;17.02
28803;BMP280;15949;55.656;37.422;2023-06-26T19:38:27;99083.13;;;17.03
28803;BMP280;15949;55.656;37.422;2023-06-26T19:43:32;99082.75;;;17.01
28803;BMP280;15949;55.656;37.422;2023-06-26T19:48:38;99076.38;;;16.95
28803;BMP280;15949;55.656;37.422;2023-06-26T19:53:45;99074.53;;;16.92
28803;BMP280;15949;55.656;37.422;2023-06-26T19:58:51;99072.31;;;16.80
28803;BMP280;15949;55.656;37.422;2023-06-26T20:03:57;99079.13;;;16.67
28803;BMP280;15949;55.656;37.422;2023-06-26T20:09:03;99085.19;;;16.53
28803;BMP280;15949;55.656;37.422;2023-06-26T20:14:09;99081.13;;;16.42
28803;BMP280;15949;55.656;37.422;2023-06-26T20:19:15;99075.13;;;16.31
28803;BMP280;15949;55.656;37.422;2023-06-26T20:24:20;99075.91;;;16.24
28803;BMP280;15949;55.656;37.422;2023-06-26T20:29:26;99079.66;;;16.12
28803;BMP280;15949;55.656;37.422;2023-06-26T20:34:31;99073.28;;;16.06
28803;BMP280;15949;55.656;37.422;2023-06-26T20:39:37;99068.81;;;15.96
28803;BMP280;15949;55.656;37.422;2023-06-26T20:44:43;99075.19;;;15.85
28803;BMP280;15949;55.656;37.422;2023-06-26T20:49:49;99083.44;;;15.69
28803;BMP280;15949;55.656;37.422;2023-06-26T20:54:55;99072.94;;;15.59
28803;BMP280;15949;55.656;37.422;2023-06-26T21:00:01;99078.19;;;15.55
28803;BMP280;15949;55.656;37.422;2023-06-26T21:05:07;99090.22;;;15.67
28803;BMP280;15949;55.656;37.422;2023-06-26T21:10:13;99091.31;;;15.90
28803;BMP280;15949;55.656;37.422;2023-06-26T21:15:19;99088.63;;;16.36
28803;BMP280;15949;55.656;37.422;2023-06-26T21:20:24;99109.66;;;16.50
28803;BMP280;15949;55.656;37.422;2023-06-26T21:25:30;99084.19;;;16.05
28803;BMP280;15949;55.656;37.422;2023-06-26T21:30:35;99057.19;;;15.76
28803;BMP280;15949;55.656;37.422;2023-06-26T21:35:41;99042.13;;;15.52
28803;BMP280;15949;55.656;37.422;2023-06-26T21:40:48;99032.38;;;15.31
28803;BMP280;15949;55.656;37.422;2023-06-26T21:45:53;99033.84;;;15.11
28803;BMP280;15949;55.656;37.422;2023-06-26T21:50:59;99039.78;;;14.94
28803;BMP280;15949;55.656;37.422;2023-06-26T21:56:04;99038.22;;;14.75
28803;BMP280;15949;55.656;37.422;2023-06-26T22:01:10;99044.91;;;14.62
28803;BMP280;15949;55.656;37.422;2023-06-26T22:06:16;99046.72;;;14.51
28803;BMP280;15949;55.656;37.422;2023-06-26T22:11:21;99040.75;;;14.51
28803;BMP280;15949;55.656;37.422;2023-06-26T22:16:27;99038.16;;;14.54
28803;BMP280;15949;55.656;37.422;2023-06-26T22:21:33;99044.09;;;14.51
28803;BMP280;15949;55.656;37.422;2023-06-26T22:26:40;99032.47;;;14.45
28803;BMP280;15949;55.656;37.422;2023-06-26T22:31:46;99031.72;;;14.52
28803;BMP280;15949;55.656;37.422;2023-06-26T22:36:52;99036.97;;;14.52
28803;BMP280;15949;55.656;37.422;2023-06-26T22:41:57;99033.25;;;14.49
28803;BMP280;15949;55.656;37.422;2023-06-26T22:47:03;99029.84;;;14.45
28803;BMP280;15949;55.656;37.422;2023-06-26T22:52:09;99024.56;;;14.38
28803;BMP280;15949;55.656;37.422;2023-06-26T22:57:14;99031.28;;;14.32
28803;BMP280;15949;55.656;37.422;2023-06-26T23:02:20;99030.44;;;14.21
28803;BMP280;15949;55.656;37.422;2023-06-26T23:07:26;99036.84;;;14.24
28803;BMP280;15949;55.656;37.422;2023-06-26T23:12:31;99028.25;;;14.30
28803;BMP280;15949;55.656;37.422;2023-06-26T23:17:38;99029.75;;;14.31
28803;BMP280;15949;55.656;37.422;2023-06-26T23:22:46;99036.09;;;14.30
28803;BMP280;15949;55.656;37.422;2023-06-26T23:27:52;99035.00;;;14.31
28803;BMP280;15949;55.656;37.422;2023-06-26T23:32:58;99039.47;;;14.24
28803;BMP280;15949;55.656;37.422;2023-06-26T23:38:04;99027.81;;;14.14
28803;BMP280;15949;55.656;37.422;2023-06-26T23:43:09;99035.59;;;14.07
28803;BMP280;15949;55.656;37.422;2023-06-26T23:48:15;99043.78;;;14.02
28803;BMP280;15949;55.656;37.422;2023-06-26T23:53:20;99035.53;;;14.00
28803;BMP280;15949;55.656;37.422;2023-06-26T23:58:26;99028.81;;;13.99
